sensor_id;sensor_type;location;lat;lon;timestamp;P1;durP1;ratioP1;P2;durP2;ratioP2
54871;SDS011;43914;57.680;11.982;2024-02-15T00:01:55;20.70;;;9.50;;
54871;SDS011;43914;57.680;11.982;2024-02-15T00:04:20;18.00;;;8.90;;
54871;SDS011;43914;57.680;11.982;2024-02-15T00:06:46;20.40;;;9.50;;
54871;SDS011;43914;57.680;11.982;2024-02-15T00:09:11;21.30;;;9.60;;
54871;SDS011;43914;57.680;11.982;2024-02-15T00:11:36;21.60;;;10.20;;
54871;SDS011;43914;57.680;11.982;2024-02-15T00:14:04;21.00;;;9.90;;
54871;SDS011;43914;57.680;11.982;2024-02-15T00:16:30;20.00;;;9.30;;
54871;SDS011;43914;57.680;11.982;2024-02-15T00:18:55;19.60;;;9.80;;
54871;SDS011;43914;57.680;11.982;2024-02-15T00:21:21;21.00;;;9.90;;
54871;SDS011;43914;57.680;11.982;2024-02-15T00:23:48;18.60;;;8.60;;
54871;SDS011;43914;57.680;11.982;2024-02-15T00:26:14;17.40;;;9.20;;
54871;SDS011;43914;57.680;11.982;2024-02-15T00:28:43;19.00;;;9.00;;
54871;SDS011;43914;57.680;11.982;2024-02-15T00:31:08;22.40;;;10.80;;
54871;SDS011;43914;57.680;11.982;2024-02-15T00:33:34;20.30;;;9.70;;
54871;SDS011;43914;57.680;11.982;2024-02-15T00:36:03;20.60;;;9.50;;
54871;SDS011;43914;57.680;11.982;2024-02-15T00:38:31;18.60;;;9.10;;
54871;SDS011;43914;57.680;11.982;2024-02-15T00:40:57;18.70;;;9.20;;
54871;SDS011;43914;57.680;11.982;2024-02-15T00:43:24;19.20;;;9.50;;
54871;SDS011;43914;57.680;11.982;2024-02-15T00:45:51;20.60;;;9.90;;
54871;SDS011;43914;57.680;11.982;2024-02-15T00:48:17;20.60;;;10.00;;
54871;SDS011;43914;57.680;11.982;2024-02-15T00:50:42;20.20;;;9.40;;
54871;SDS011;43914;57.680;11.982;2024-02-15T00:53:08;17.30;;;8.80;;
54871;SDS011;43914;57.680;11.982;2024-02-15T00:55:33;18.20;;;9.30;;
54871;SDS011;43914;57.680;11.982;2024-02-15T00:57:58;18.00;;;9.20;;
54871;SDS011;43914;57.680;11.982;2024-02-15T01:00:24;18.70;;;9.10;;
54871;SDS011;43914;57.680;11.982;2024-02-15T01:02:51;17.80;;;9.00;;
54871;SDS011;43914;57.680;11.982;2024-02-15T01:05:18;18.30;;;8.70;;
54871;SDS011;43914;57.680;11.982;2024-02-15T01:07:44;17.70;;;8.60;;
54871;SDS011;43914;57.680;11.982;2024-02-15T01:10:09;18.20;;;8.80;;
54871;SDS011;43914;57.680;11.982;2024-02-15T01:12:35;18.70;;;8.90;;
54871;SDS011;43914;57.680;11.982;2024-02-15T01:15:00;18.80;;;8.90;;
54871;SDS011;43914;57.680;11.982;2024-02-15T01:17:26;16.70;;;8.70;;
54871;SDS011;43914;57.680;11.982;2024-02-15T01:19:52;17.70;;;8.80;;
54871;SDS011;43914;57.680;11.982;2024-02-15T01:22:18;16.00;;;7.50;;
54871;SDS011;43914;57.680;11.982;2024-02-15T01:24:44;16.40;;;8.10;;
54871;SDS011;43914;57.680;11.982;2024-02-15T01:27:10;15.50;;;8.20;;
54871;SDS011;43914;57.680;11.982;2024-02-15T01:29:35;18.30;;;8.30;;
54871;SDS011;43914;57.680;11.982;2024-02-15T01:32:01;17.30;;;7.70;;
54871;SDS011;43914;57.680;11.982;2024-02-15T01:34:30;15.70;;;7.30;;
54871;SDS011;43914;57.680;11.982;2024-02-15T01:36:55;15.50;;;7.90;;
54871;SDS011;43914;57.680;11.982;2024-02-15T01:39:21;15.00;;;7.00;;
54871;SDS011;43914;57.680;11.982;2024-02-15T01:41:47;15.20;;;7.80;;
54871;SDS011;43914;57.680;11.982;2024-02-15T01:44:19;13.40;;;6.60;;
54871;SDS011;43914;57.680;11.982;2024-02-15T01:46:45;15.60;;;7.50;;
54871;SDS011;43914;57.680;11.982;2024-02-15T01:49:13;14.70;;;7.20;;
54871;SDS011;43914;57.680;11.982;2024-02-15T01:51:40;15.20;;;7.30;;
54871;SDS011;43914;57.680;11.982;2024-02-15T01:54:09;16.60;;;7.90;;
54871;SDS011;43914;57.680;11.982;2024-02-15T01:56:36;15.20;;;7.30;;
54871;SDS011;43914;57.680;11.982;2024-02-15T01:59:02;14.60;;;7.00;;
54871;SDS011;43914;57.680;11.982;2024-02-15T02:01:29;16.40;;;6.90;;
54871;SDS011;43914;57.680;11.982;2024-02-15T02:03:59;14.80;;;7.30;;
54871;SDS011;43914;57.680;11.982;2024-02-15T02:06:26;13.30;;;7.00;;
54871;SDS011;43914;57.680;11.982;2024-02-15T02:08:52;14.90;;;7.40;;
54871;SDS011;43914;57.680;11.982;2024-02-15T02:11:22;14.40;;;7.10;;
54871;SDS011;43914;57.680;11.982;2024-02-15T02:13:48;14.80;;;7.60;;
54871;SDS011;43914;57.680;11.982;2024-02-15T02:16:30;14.30;;;6.90;;
54871;SDS011;43914;57.680;11.982;2024-02-15T02:19:00;16.20;;;8.00;;
54871;SDS011;43914;57.680;11.982;2024-02-15T02:21:26;14.90;;;7.20;;
54871;SDS011;43914;57.680;11.982;2024-02-15T02:24:17;14.70;;;7.10;;
54871;SDS011;43914;57.680;11.982;2024-02-15T02:26:46;12.70;;;6.40;;
54871;SDS011;43914;57.680;11.982;2024-02-15T02:29:14;14.50;;;6.90;;
54871;SDS011;43914;57.680;11.982;2024-02-15T02:31:40;15.80;;;6.80;;
54871;SDS011;43914;57.680;11.982;2024-02-15T02:34:08;14.40;;;6.80;;
54871;SDS011;43914;57.680;11.982;2024-02-15T02:36:34;13.50;;;6.70;;
54871;SDS011;43914;57.680;11.982;2024-02-15T02:39:01;13.70;;;7.30;;
54871;SDS011;43914;57.680;11.982;2024-02-15T02:41:27;13.20;;;6.40;;
54871;SDS011;43914;57.680;11.982;2024-02-15T02:43:54;12.30;;;5.80;;
54871;SDS011;43914;57.680;11.982;2024-02-15T02:46:23;11.30;;;5.60;;
54871;SDS011;43914;57.680;11.982;2024-02-15T02:48:49;11.40;;;5.80;;
54871;SDS011;43914;57.680;11.982;2024-02-15T02:51:14;12.30;;;6.90;;
54871;SDS011;43914;57.680;11.982;2024-02-15T02:53:41;12.20;;;6.30;;
54871;SDS011;43914;57.680;11.982;2024-02-15T02:56:06;14.20;;;6.70;;
54871;SDS011;43914;57.680;11.982;2024-02-15T02:58:34;12.70;;;6.20;;
54871;SDS011;43914;57.680;11.982;2024-02-15T03:00:59;13.90;;;7.20;;
54871;SDS011;43914;57.680;11.982;2024-02-15T03:03:25;12.50;;;6.20;;
54871;SDS011;43914;57.680;11.982;2024-02-15T03:05:51;13.00;;;6.70;;
54871;SDS011;43914;57.680;11.982;2024-02-15T03:08:16;13.20;;;6.60;;
54871;SDS011;43914;57.680;11.982;2024-02-15T03:10:42;11.80;;;6.20;;
54871;SDS011;43914;57.680;11.982;2024-02-15T03:13:08;12.00;;;6.20;;
54871;SDS011;43914;57.680;11.982;2024-02-15T03:15:34;12.30;;;6.40;;
54871;SDS011;43914;57.680;11.982;2024-02-15T03:18:02;12.90;;;6.90;;
54871;SDS011;43914;57.680;11.982;2024-02-15T03:20:32;13.50;;;7.20;;
54871;SDS011;43914;57.680;11.982;2024-02-15T03:22:59;13.30;;;6.60;;
54871;SDS011;43914;57.680;11.982;2024-02-15T03:25:26;11.70;;;5.80;;
54871;SDS011;43914;57.680;11.982;2024-02-15T03:27:57;12.80;;;6.60;;
54871;SDS011;43914;57.680;11.982;2024-02-15T03:30:25;12.40;;;6.60;;
54871;SDS011;43914;57.680;11.982;2024-02-15T03:32:51;12.30;;;6.50;;
54871;SDS011;43914;57.680;11.982;2024-02-15T03:35:18;12.00;;;6.30;;
54871;SDS011;43914;57.680;11.982;2024-02-15T03:37:45;13.40;;;6.80;;
54871;SDS011;43914;57.680;11.982;2024-02-15T03:40:11;12.60;;;6.50;;
54871;SDS011;43914;57.680;11.982;2024-02-15T03:42:37;12.70;;;6.40;;
54871;SDS011;43914;57.680;11.982;2024-02-15T03:45:05;12.20;;;6.30;;
54871;SDS011;43914;57.680;11.982;2024-02-15T03:47:34;13.10;;;6.30;;
54871;SDS011;43914;57.680;11.982;2024-02-15T03:50:07;13.50;;;6.90;;
54871;SDS011;43914;57.680;11.982;2024-02-15T03:52:36;12.50;;;6.80;;
54871;SDS011;43914;57.680;11.982;2024-02-15T03:55:02;11.70;;;6.10;;
54871;SDS011;43914;57.680;11.982;2024-02-15T03:57:28;13.30;;;7.00;;
54871;SDS011;43914;57.680;11.982;2024-02-15T03:59:54;14.30;;;6.90;;
54871;SDS011;43914;57.680;11.982;2024-02-15T04:02:22;14.70;;;7.50;;
54871;SDS011;43914;57.680;11.982;2024-02-15T04:04:51;14.10;;;7.20;;
54871;SDS011;43914;57.680;11.982;2024-02-15T04:07:23;13.80;;;6.80;;
54871;SDS011;43914;57.680;11.982;2024-02-15T04:09:52;12.30;;;6.70;;
54871;SDS011;43914;57.680;11.982;2024-02-15T04:12:18;14.60;;;7.70;;
54871;SDS011;43914;57.680;11.982;2024-02-15T04:14:44;13.20;;;6.50;;
54871;SDS011;43914;57.680;11.982;2024-02-15T04:17:10;13.40;;;7.40;;
54871;SDS011;43914;57.680;11.982;2024-02-15T04:19:40;14.00;;;6.70;;
54871;SDS011;43914;57.680;11.982;2024-02-15T04:22:06;15.20;;;7.40;;
54871;SDS011;43914;57.680;11.982;2024-02-15T04:24:37;15.00;;;7.80;;
54871;SDS011;43914;57.680;11.982;2024-02-15T04:27:06;17.00;;;8.60;;
54871;SDS011;43914;57.680;11.982;2024-02-15T04:29:42;16.50;;;7.60;;
54871;SDS011;43914;57.680;11.982;2024-02-15T04:32:11;15.20;;;8.20;;
54871;SDS011;43914;57.680;11.982;2024-02-15T04:34:38;13.10;;;6.70;;
54871;SDS011;43914;57.680;11.982;2024-02-15T04:37:04;14.80;;;8.30;;
54871;SDS011;43914;57.680;11.982;2024-02-15T04:39:33;15.00;;;7.80;;
54871;SDS011;43914;57.680;11.982;2024-02-15T04:42:01;13.50;;;7.70;;
54871;SDS011;43914;57.680;11.982;2024-02-15T04:44:27;18.10;;;8.70;;
54871;SDS011;43914;57.680;11.982;2024-02-15T04:46:55;15.10;;;8.00;;
54871;SDS011;43914;57.680;11.982;2024-02-15T04:49:20;14.80;;;7.50;;
54871;SDS011;43914;57.680;11.982;2024-02-15T04:51:46;17.20;;;8.70;;
54871;SDS011;43914;57.680;11.982;2024-02-15T04:54:12;15.90;;;7.80;;
54871;SDS011;43914;57.680;11.982;2024-02-15T04:56:42;16.40;;;8.10;;
54871;SDS011;43914;57.680;11.982;2024-02-15T04:59:08;16.00;;;8.70;;
54871;SDS011;43914;57.680;11.982;2024-02-15T05:01:40;15.10;;;7.90;;
54871;SDS011;43914;57.680;11.982;2024-02-15T05:04:11;16.10;;;8.20;;
54871;SDS011;43914;57.680;11.982;2024-02-15T05:06:37;15.80;;;8.10;;
54871;SDS011;43914;57.680;11.982;2024-02-15T05:09:03;17.10;;;8.00;;
54871;SDS011;43914;57.680;11.982;2024-02-15T05:11:39;14.20;;;7.40;;
54871;SDS011;43914;57.680;11.982;2024-02-15T05:14:15;16.60;;;8.50;;
54871;SDS011;43914;57.680;11.982;2024-02-15T05:16:45;16.80;;;8.10;;
54871;SDS011;43914;57.680;11.982;2024-02-15T05:19:13;17.90;;;9.20;;
54871;SDS011;43914;57.680;11.982;2024-02-15T05:21:43;17.40;;;8.60;;
54871;SDS011;43914;57.680;11.982;2024-02-15T05:24:15;17.30;;;8.50;;
54871;SDS011;43914;57.680;11.982;2024-02-15T05:26:43;15.10;;;8.30;;
54871;SDS011;43914;57.680;11.982;2024-02-15T05:29:16;15.70;;;8.50;;
54871;SDS011;43914;57.680;11.982;2024-02-15T05:31:41;17.30;;;9.00;;
54871;SDS011;43914;57.680;11.982;2024-02-15T05:34:07;16.90;;;8.30;;
54871;SDS011;43914;57.680;11.982;2024-02-15T05:36:36;17.80;;;8.60;;
54871;SDS011;43914;57.680;11.982;2024-02-15T05:39:03;18.20;;;9.60;;
54871;SDS011;43914;57.680;11.982;2024-02-15T05:41:30;16.10;;;8.40;;
54871;SDS011;43914;57.680;11.982;2024-02-15T05:43:57;16.70;;;9.10;;
54871;SDS011;43914;57.680;11.982;2024-02-15T05:46:23;19.10;;;10.10;;
54871;SDS011;43914;57.680;11.982;2024-02-15T05:48:48;16.30;;;9.30;;
54871;SDS011;43914;57.680;11.982;2024-02-15T05:51:14;18.30;;;9.80;;
54871;SDS011;43914;57.680;11.982;2024-02-15T05:53:40;17.30;;;9.00;;
54871;SDS011;43914;57.680;11.982;2024-02-15T05:56:06;18.80;;;9.70;;
54871;SDS011;43914;57.680;11.982;2024-02-15T05:58:33;19.30;;;10.10;;
54871;SDS011;43914;57.680;11.982;2024-02-15T06:01:00;15.70;;;8.80;;
54871;SDS011;43914;57.680;11.982;2024-02-15T06:03:31;17.30;;;9.30;;
54871;SDS011;43914;57.680;11.982;2024-02-15T06:06:02;18.50;;;9.00;;
54871;SDS011;43914;57.680;11.982;2024-02-15T06:08:34;17.80;;;8.80;;
54871;SDS011;43914;57.680;11.982;2024-02-15T06:11:00;17.60;;;8.90;;
54871;SDS011;43914;57.680;11.982;2024-02-15T06:13:27;17.20;;;8.30;;
54871;SDS011;43914;57.680;11.982;2024-02-15T06:15:53;15.90;;;8.60;;
54871;SDS011;43914;57.680;11.982;2024-02-15T06:18:19;17.70;;;8.70;;
54871;SDS011;43914;57.680;11.982;2024-02-15T06:20:56;17.50;;;8.60;;
54871;SDS011;43914;57.680;11.982;2024-02-15T06:23:27;16.90;;;9.00;;
54871;SDS011;43914;57.680;11.982;2024-02-15T06:25:54;16.70;;;8.70;;
54871;SDS011;43914;57.680;11.982;2024-02-15T06:28:23;16.30;;;8.00;;
54871;SDS011;43914;57.680;11.982;2024-02-15T06:33:53;18.10;;;9.20;;
54871;SDS011;43914;57.680;11.982;2024-02-15T06:36:47;16.60;;;8.10;;
54871;SDS011;43914;57.680;11.982;2024-02-15T06:39:32;18.20;;;8.80;;
54871;SDS011;43914;57.680;11.982;2024-02-15T06:42:11;19.20;;;9.80;;
54871;SDS011;43914;57.680;11.982;2024-02-15T06:44:47;18.10;;;9.50;;
54871;SDS011;43914;57.680;11.982;2024-02-15T06:47:13;18.20;;;9.60;;
54871;SDS011;43914;57.680;11.982;2024-02-15T06:49:43;18.50;;;9.50;;
54871;SDS011;43914;57.680;11.982;2024-02-15T06:52:11;17.70;;;9.40;;
54871;SDS011;43914;57.680;11.982;2024-02-15T06:54:39;18.70;;;10.00;;
54871;SDS011;43914;57.680;11.982;2024-02-15T06:57:06;15.10;;;7.90;;
54871;SDS011;43914;57.680;11.982;2024-02-15T06:59:32;19.10;;;10.30;;
54871;SDS011;43914;57.680;11.982;2024-02-15T07:01:59;18.20;;;9.40;;
54871;SDS011;43914;57.680;11.982;2024-02-15T07:04:30;16.10;;;8.90;;
54871;SDS011;43914;57.680;11.982;2024-02-15T07:06:57;19.70;;;9.60;;
54871;SDS011;43914;57.680;11.982;2024-02-15T07:09:23;19.50;;;9.40;;
54871;SDS011;43914;57.680;11.982;2024-02-15T07:11:50;18.80;;;9.40;;
54871;SDS011;43914;57.680;11.982;2024-02-15T07:14:16;20.80;;;10.70;;
54871;SDS011;43914;57.680;11.982;2024-02-15T07:16:48;19.20;;;9.70;;
54871;SDS011;43914;57.680;11.982;2024-02-15T07:19:14;16.80;;;8.40;;
54871;SDS011;43914;57.680;11.982;2024-02-15T07:21:41;16.30;;;8.20;;
54871;SDS011;43914;57.680;11.982;2024-02-15T07:24:07;15.70;;;7.90;;
54871;SDS011;43914;57.680;11.982;2024-02-15T07:26:32;18.40;;;9.70;;
54871;SDS011;43914;57.680;11.982;2024-02-15T07:29:00;16.90;;;8.30;;
54871;SDS011;43914;57.680;11.982;2024-02-15T07:31:28;16.00;;;8.00;;
54871;SDS011;43914;57.680;11.982;2024-02-15T07:33:54;15.80;;;8.20;;
54871;SDS011;43914;57.680;11.982;2024-02-15T07:36:20;16.80;;;9.00;;
54871;SDS011;43914;57.680;11.982;2024-02-15T07:38:52;16.10;;;8.20;;
54871;SDS011;43914;57.680;11.982;2024-02-15T07:41:19;18.50;;;9.50;;
54871;SDS011;43914;57.680;11.982;2024-02-15T07:43:48;17.90;;;9.20;;
54871;SDS011;43914;57.680;11.982;2024-02-15T07:46:15;21.40;;;10.50;;
54871;SDS011;43914;57.680;11.982;2024-02-15T07:48:43;18.70;;;9.90;;
54871;SDS011;43914;57.680;11.982;2024-02-15T07:51:12;18.60;;;9.80;;
54871;SDS011;43914;57.680;11.982;2024-02-15T07:53:40;19.90;;;10.00;;
54871;SDS011;43914;57.680;11.982;2024-02-15T07:56:05;17.30;;;9.30;;
54871;SDS011;43914;57.680;11.982;2024-02-15T07:58:31;19.70;;;10.10;;
54871;SDS011;43914;57.680;11.982;2024-02-15T08:00:57;19.10;;;10.20;;
54871;SDS011;43914;57.680;11.982;2024-02-15T08:03:24;20.70;;;10.70;;
54871;SDS011;43914;57.680;11.982;2024-02-15T08:05:52;19.30;;;9.90;;
54871;SDS011;43914;57.680;11.982;2024-02-15T08:08:17;18.00;;;9.10;;
54871;SDS011;43914;57.680;11.982;2024-02-15T08:10:43;18.00;;;9.20;;
54871;SDS011;43914;57.680;11.982;2024-02-15T08:13:10;19.00;;;10.00;;
54871;SDS011;43914;57.680;11.982;2024-02-15T08:15:35;17.60;;;8.60;;
54871;SDS011;43914;57.680;11.982;2024-02-15T08:18:01;15.80;;;8.40;;
54871;SDS011;43914;57.680;11.982;2024-02-15T08:20:30;17.10;;;9.10;;
54871;SDS011;43914;57.680;11.982;2024-02-15T08:22:56;15.50;;;7.70;;
54871;SDS011;43914;57.680;11.982;2024-02-15T08:25:24;19.40;;;9.90;;
54871;SDS011;43914;57.680;11.982;2024-02-15T08:27:51;15.70;;;7.90;;
54871;SDS011;43914;57.680;11.982;2024-02-15T08:30:17;16.20;;;8.20;;
54871;SDS011;43914;57.680;11.982;2024-02-15T08:32:44;19.30;;;8.90;;
54871;SDS011;43914;57.680;11.982;2024-02-15T08:35:11;14.80;;;7.80;;
54871;SDS011;43914;57.680;11.982;2024-02-15T08:37:38;14.00;;;6.90;;
54871;SDS011;43914;57.680;11.982;2024-02-15T08:40:05;16.30;;;7.60;;
54871;SDS011;43914;57.680;11.982;2024-02-15T08:42:39;16.50;;;8.30;;
54871;SDS011;43914;57.680;11.982;2024-02-15T08:45:06;15.00;;;7.30;;
54871;SDS011;43914;57.680;11.982;2024-02-15T08:47:39;13.90;;;6.70;;
54871;SDS011;43914;57.680;11.982;2024-02-15T08:50:05;14.50;;;7.30;;
54871;SDS011;43914;57.680;11.982;2024-02-15T08:52:36;15.60;;;7.10;;
54871;SDS011;43914;57.680;11.982;2024-02-15T08:55:07;14.40;;;7.00;;
54871;SDS011;43914;57.680;11.982;2024-02-15T08:57:34;15.30;;;7.70;;
54871;SDS011;43914;57.680;11.982;2024-02-15T09:00:04;13.60;;;6.50;;
54871;SDS011;43914;57.680;11.982;2024-02-15T09:02:38;13.20;;;6.40;;
54871;SDS011;43914;57.680;11.982;2024-02-15T09:05:05;13.80;;;7.00;;
54871;SDS011;43914;57.680;11.982;2024-02-15T09:07:31;12.60;;;5.80;;
54871;SDS011;43914;57.680;11.982;2024-02-15T09:09:56;12.90;;;6.50;;
54871;SDS011;43914;57.680;11.982;2024-02-15T09:12:22;15.60;;;6.60;;
54871;SDS011;43914;57.680;11.982;2024-02-15T09:14:47;15.20;;;7.00;;
54871;SDS011;43914;57.680;11.982;2024-02-15T09:17:13;12.60;;;6.30;;
54871;SDS011;43914;57.680;11.982;2024-02-15T09:19:39;14.70;;;7.60;;
54871;SDS011;43914;57.680;11.982;2024-02-15T09:22:04;13.40;;;6.90;;
54871;SDS011;43914;57.680;11.982;2024-02-15T09:24:30;15.00;;;7.90;;
54871;SDS011;43914;57.680;11.982;2024-02-15T09:26:58;14.60;;;7.80;;
54871;SDS011;43914;57.680;11.982;2024-02-15T09:29:23;14.50;;;7.20;;
54871;SDS011;43914;57.680;11.982;2024-02-15T09:31:49;14.40;;;7.20;;
54871;SDS011;43914;57.680;11.982;2024-02-15T09:34:15;14.50;;;7.30;;
54871;SDS011;43914;57.680;11.982;2024-02-15T09:36:40;13.10;;;6.70;;
54871;SDS011;43914;57.680;11.982;2024-02-15T09:39:06;13.50;;;6.80;;
54871;SDS011;43914;57.680;11.982;2024-02-15T09:41:31;14.00;;;6.50;;
54871;SDS011;43914;57.680;11.982;2024-02-15T09:43:59;13.00;;;6.50;;
54871;SDS011;43914;57.680;11.982;2024-02-15T09:46:26;13.60;;;6.80;;
54871;SDS011;43914;57.680;11.982;2024-02-15T09:48:53;13.30;;;6.80;;
54871;SDS011;43914;57.680;11.982;2024-02-15T09:51:27;12.70;;;6.20;;
54871;SDS011;43914;57.680;11.982;2024-02-15T09:53:58;14.00;;;6.50;;
54871;SDS011;43914;57.680;11.982;2024-02-15T09:56:26;13.10;;;6.80;;
54871;SDS011;43914;57.680;11.982;2024-02-15T09:58:53;11.90;;;6.10;;
54871;SDS011;43914;57.680;11.982;2024-02-15T10:01:22;12.50;;;6.00;;
54871;SDS011;43914;57.680;11.982;2024-02-15T10:03:49;12.80;;;6.20;;
54871;SDS011;43914;57.680;11.982;2024-02-15T10:06:18;13.60;;;6.90;;
54871;SDS011;43914;57.680;11.982;2024-02-15T10:08:45;13.30;;;6.30;;
54871;SDS011;43914;57.680;11.982;2024-02-15T10:11:12;13.20;;;6.80;;
54871;SDS011;43914;57.680;11.982;2024-02-15T10:13:39;12.80;;;5.60;;
54871;SDS011;43914;57.680;11.982;2024-02-15T10:16:17;12.90;;;6.40;;
54871;SDS011;43914;57.680;11.982;2024-02-15T10:18:47;10.90;;;5.50;;
54871;SDS011;43914;57.680;11.982;2024-02-15T10:21:25;11.90;;;6.00;;
54871;SDS011;43914;57.680;11.982;2024-02-15T10:26:48;11.20;;;5.90;;
54871;SDS011;43914;57.680;11.982;2024-02-15T10:29:14;12.80;;;5.90;;
54871;SDS011;43914;57.680;11.982;2024-02-15T10:31:55;12.90;;;6.40;;
54871;SDS011;43914;57.680;11.982;2024-02-15T10:34:22;13.60;;;6.70;;
54871;SDS011;43914;57.680;11.982;2024-02-15T10:36:48;12.10;;;6.80;;
54871;SDS011;43914;57.680;11.982;2024-02-15T10:41:51;11.30;;;6.20;;
54871;SDS011;43914;57.680;11.982;2024-02-15T10:44:22;11.20;;;5.80;;
54871;SDS011;43914;57.680;11.982;2024-02-15T10:46:49;12.40;;;6.10;;
54871;SDS011;43914;57.680;11.982;2024-02-15T10:49:24;11.70;;;6.00;;
54871;SDS011;43914;57.680;11.982;2024-02-15T10:51:59;9.80;;;5.00;;
54871;SDS011;43914;57.680;11.982;2024-02-15T10:57:03;10.90;;;5.30;;
54871;SDS011;43914;57.680;11.982;2024-02-15T10:59:49;10.20;;;5.50;;
54871;SDS011;43914;57.680;11.982;2024-02-15T11:04:49;11.70;;;6.00;;
54871;SDS011;43914;57.680;11.982;2024-02-15T11:07:23;9.50;;;5.00;;
54871;SDS011;43914;57.680;11.982;2024-02-15T11:09:51;10.80;;;5.50;;
54871;SDS011;43914;57.680;11.982;2024-02-15T11:12:17;10.70;;;5.40;;
54871;SDS011;43914;57.680;11.982;2024-02-15T11:14:44;10.20;;;5.00;;
54871;SDS011;43914;57.680;11.982;2024-02-15T11:17:10;10.20;;;4.90;;
54871;SDS011;43914;57.680;11.982;2024-02-15T11:22:23;9.70;;;4.20;;
54871;SDS011;43914;57.680;11.982;2024-02-15T11:24:52;10.50;;;5.00;;
54871;SDS011;43914;57.680;11.982;2024-02-15T11:27:30;10.00;;;4.60;;
54871;SDS011;43914;57.680;11.982;2024-02-15T11:30:00;9.00;;;4.40;;
54871;SDS011;43914;57.680;11.982;2024-02-15T11:35:12;9.60;;;4.60;;
54871;SDS011;43914;57.680;11.982;2024-02-15T11:40:23;9.00;;;4.50;;
54871;SDS011;43914;57.680;11.982;2024-02-15T11:43:10;8.10;;;3.90;;
54871;SDS011;43914;57.680;11.982;2024-02-15T11:46:00;9.00;;;4.40;;
54871;SDS011;43914;57.680;11.982;2024-02-15T11:48:28;9.70;;;4.90;;
54871;SDS011;43914;57.680;11.982;2024-02-15T11:50:53;9.90;;;4.50;;
54871;SDS011;43914;57.680;11.982;2024-02-15T11:53:19;9.10;;;4.50;;
54871;SDS011;43914;57.680;11.982;2024-02-15T11:55:44;8.30;;;4.00;;
54871;SDS011;43914;57.680;11.982;2024-02-15T11:58:10;9.10;;;4.40;;
54871;SDS011;43914;57.680;11.982;2024-02-15T12:00:43;8.90;;;4.30;;
54871;SDS011;43914;57.680;11.982;2024-02-15T12:03:28;8.60;;;4.20;;
54871;SDS011;43914;57.680;11.982;2024-02-15T12:06:12;8.40;;;4.10;;
54871;SDS011;43914;57.680;11.982;2024-02-15T12:09:01;8.70;;;4.50;;
54871;SDS011;43914;57.680;11.982;2024-02-15T12:14:29;10.10;;;4.40;;
54871;SDS011;43914;57.680;11.982;2024-02-15T12:17:13;8.90;;;4.60;;
54871;SDS011;43914;57.680;11.982;2024-02-15T12:20:01;8.50;;;4.60;;
54871;SDS011;43914;57.680;11.982;2024-02-15T12:22:51;9.40;;;4.90;;
54871;SDS011;43914;57.680;11.982;2024-02-15T12:25:18;8.60;;;3.90;;
54871;SDS011;43914;57.680;11.982;2024-02-15T12:27:46;8.60;;;3.60;;
54871;SDS011;43914;57.680;11.982;2024-02-15T12:30:18;9.00;;;4.40;;
54871;SDS011;43914;57.680;11.982;2024-02-15T12:32:50;7.60;;;3.60;;
54871;SDS011;43914;57.680;11.982;2024-02-15T12:35:21;8.30;;;4.10;;
54871;SDS011;43914;57.680;11.982;2024-02-15T12:38:00;8.10;;;4.00;;
54871;SDS011;43914;57.680;11.982;2024-02-15T12:40:35;7.40;;;3.40;;
54871;SDS011;43914;57.680;11.982;2024-02-15T12:43:02;8.20;;;4.00;;
54871;SDS011;43914;57.680;11.982;2024-02-15T12:45:31;7.40;;;3.70;;
54871;SDS011;43914;57.680;11.982;2024-02-15T12:48:03;7.70;;;3.30;;
54871;SDS011;43914;57.680;11.982;2024-02-15T12:50:30;9.50;;;4.30;;
54871;SDS011;43914;57.680;11.982;2024-02-15T12:52:57;7.90;;;3.70;;
54871;SDS011;43914;57.680;11.982;2024-02-15T12:55:33;6.70;;;3.30;;
54871;SDS011;43914;57.680;11.982;2024-02-15T12:58:00;9.40;;;3.90;;
54871;SDS011;43914;57.680;11.982;2024-02-15T13:00:29;8.00;;;4.00;;
54871;SDS011;43914;57.680;11.982;2024-02-15T13:03:04;7.80;;;3.70;;
54871;SDS011;43914;57.680;11.982;2024-02-15T13:05:34;7.60;;;3.80;;
54871;SDS011;43914;57.680;11.982;2024-02-15T13:08:01;7.10;;;3.30;;
54871;SDS011;43914;57.680;11.982;2024-02-15T13:10:29;8.50;;;3.80;;
54871;SDS011;43914;57.680;11.982;2024-02-15T13:12:55;7.50;;;3.20;;
54871;SDS011;43914;57.680;11.982;2024-02-15T13:15:21;7.10;;;3.40;;
54871;SDS011;43914;57.680;11.982;2024-02-15T13:17:52;7.20;;;3.20;;
54871;SDS011;43914;57.680;11.982;2024-02-15T13:20:22;6.70;;;3.00;;
54871;SDS011;43914;57.680;11.982;2024-02-15T13:22:59;6.70;;;2.80;;
54871;SDS011;43914;57.680;11.982;2024-02-15T13:25:33;6.70;;;2.90;;
54871;SDS011;43914;57.680;11.982;2024-02-15T13:28:01;7.70;;;2.90;;
54871;SDS011;43914;57.680;11.982;2024-02-15T13:30:29;7.00;;;3.00;;
54871;SDS011;43914;57.680;11.982;2024-02-15T13:32:55;6.80;;;3.20;;
54871;SDS011;43914;57.680;11.982;2024-02-15T13:35:21;8.80;;;2.80;;
54871;SDS011;43914;57.680;11.982;2024-02-15T13:37:52;6.50;;;2.80;;
54871;SDS011;43914;57.680;11.982;2024-02-15T13:40:19;6.20;;;2.40;;
54871;SDS011;43914;57.680;11.982;2024-02-15T13:42:49;7.60;;;3.10;;
54871;SDS011;43914;57.680;11.982;2024-02-15T13:45:19;6.60;;;2.80;;
54871;SDS011;43914;57.680;11.982;2024-02-15T13:47:49;6.70;;;3.00;;
54871;SDS011;43914;57.680;11.982;2024-02-15T13:50:16;7.10;;;2.80;;
54871;SDS011;43914;57.680;11.982;2024-02-15T13:52:42;7.10;;;3.40;;
54871;SDS011;43914;57.680;11.982;2024-02-15T13:55:12;6.50;;;3.00;;
54871;SDS011;43914;57.680;11.982;2024-02-15T13:57:39;5.90;;;2.40;;
54871;SDS011;43914;57.680;11.982;2024-02-15T14:00:07;8.00;;;3.10;;
54871;SDS011;43914;57.680;11.982;2024-02-15T14:02:39;6.00;;;2.70;;
54871;SDS011;43914;57.680;11.982;2024-02-15T14:05:08;6.90;;;2.80;;
54871;SDS011;43914;57.680;11.982;2024-02-15T14:07:36;6.50;;;2.80;;
54871;SDS011;43914;57.680;11.982;2024-02-15T14:10:05;6.10;;;2.50;;
54871;SDS011;43914;57.680;11.982;2024-02-15T14:12:32;6.90;;;2.60;;
54871;SDS011;43914;57.680;11.982;2024-02-15T14:14:57;6.90;;;2.90;;
54871;SDS011;43914;57.680;11.982;2024-02-15T14:17:23;6.30;;;2.50;;
54871;SDS011;43914;57.680;11.982;2024-02-15T14:19:48;6.50;;;2.80;;
54871;SDS011;43914;57.680;11.982;2024-02-15T14:22:14;6.20;;;2.50;;
54871;SDS011;43914;57.680;11.982;2024-02-15T14:25:00;5.90;;;2.50;;
54871;SDS011;43914;57.680;11.982;2024-02-15T14:27:26;6.30;;;2.60;;
54871;SDS011;43914;57.680;11.982;2024-02-15T14:29:52;7.70;;;2.80;;
54871;SDS011;43914;57.680;11.982;2024-02-15T14:32:36;6.20;;;2.30;;
54871;SDS011;43914;57.680;11.982;2024-02-15T14:35:20;7.00;;;2.40;;
54871;SDS011;43914;57.680;11.982;2024-02-15T14:37:46;6.00;;;2.50;;
54871;SDS011;43914;57.680;11.982;2024-02-15T14:40:12;6.40;;;2.70;;
54871;SDS011;43914;57.680;11.982;2024-02-15T14:42:39;5.90;;;2.20;;
54871;SDS011;43914;57.680;11.982;2024-02-15T14:45:08;6.00;;;2.40;;
54871;SDS011;43914;57.680;11.982;2024-02-15T14:47:34;6.90;;;2.50;;
54871;SDS011;43914;57.680;11.982;2024-02-15T14:50:01;6.50;;;2.20;;
54871;SDS011;43914;57.680;11.982;2024-02-15T14:52:27;5.90;;;2.30;;
54871;SDS011;43914;57.680;11.982;2024-02-15T14:54:53;6.50;;;2.70;;
54871;SDS011;43914;57.680;11.982;2024-02-15T14:57:19;6.00;;;2.60;;